Time;durP1;ratioP1;P1;durP2;ratioP2;P2;SDS_P1;SDS_P2;PMS_P1;PMS_P2;Temp;Humidity;BMP_temperature;BMP_pressure;BME280_temperature;BME280_humidity;BME280_pressure;Samples;Min_cycle;Max_cycle;Signal;HPM_P1;HPM_P2
2022/09/28 00:01:13;;;;;;;4.90;3.63;;;10.50;99.90;;;;;;5034641;28;20279;-73
2022/09/28 00:03:39;;;;;;;3.43;2.00;;;10.50;99.90;;;;;;5039135;28;20204;-73
2022/09/28 00:06:07;;;;;;;5.03;2.17;;;10.50;99.90;;;;;;5044935;28;20605;-74
2022/09/28 00:08:34;;;;;;;2.17;1.80;;;10.40;99.90;;;;;;5039798;28;20253;-73
2022/09/28 00:11:00;;;;;;;4.57;2.80;;;10.40;99.90;;;;;;5042211;28;20307;-72
2022/09/28 00:13:27;;;;;;;3.80;2.80;;;10.40;99.90;;;;;;5048967;28;20580;-76
2022/09/28 00:16:07;;;;;;;3.93;2.90;;;10.40;99.90;;;;;;5025775;28;20873;-74
2022/09/28 00:18:34;;;;;;;4.73;2.53;;;10.40;99.90;;;;;;5039334;28;20210;-76
2022/09/28 00:21:07;;;;;;;4.13;2.43;;;10.30;99.90;;;;;;5033000;28;20211;-77
2022/09/28 00:24:11;;;;;;;4.23;3.17;;;10.40;99.90;;;;;;5049928;28;20290;-74
2022/09/28 00:26:20;;;;;;;2.70;2.07;;;10.40;99.90;;;;;;5047690;28;20203;-70
2022/09/28 00:28:45;;;;;;;4.13;3.00;;;10.30;99.90;;;;;;5048347;28;20237;-77
2022/09/28 00:31:11;;;;;;;3.73;2.53;;;10.30;99.90;;;;;;5053834;28;20196;-77
2022/09/28 00:33:39;;;;;;;4.10;3.20;;;10.20;99.90;;;;;;5035464;28;20231;-76
2022/09/28 00:36:05;;;;;;;2.53;2.33;;;10.20;99.90;;;;;;5036974;28;20219;-77
2022/09/28 00:38:30;;;;;;;3.20;2.43;;;10.10;99.90;;;;;;5055847;28;20207;-76
2022/09/28 00:40:56;;;;;;;4.03;2.90;;;10.10;99.90;;;;;;5032269;28;20286;-72
2022/09/28 00:43:23;;;;;;;3.10;2.43;;;10.20;99.90;;;;;;5050132;28;20195;-75
2022/09/28 00:45:56;;;;;;;3.50;2.73;;;10.00;99.90;;;;;;5049792;28;20190;-77
2022/09/28 00:48:23;;;;;;;3.87;3.07;;;10.00;99.90;;;;;;5048539;28;20199;-76
2022/09/28 00:50:49;;;;;;;5.17;3.80;;;10.00;99.90;;;;;;5048539;28;20740;-74
2022/09/28 00:53:23;;;;;;;3.03;2.43;;;10.20;99.90;;;;;;5048108;28;20210;-75
2022/09/28 00:56:08;;;;;;;5.90;2.93;;;10.10;99.90;;;;;;5045279;28;20222;-73
2022/09/28 00:58:38;;;;;;;3.40;3.00;;;10.10;99.90;;;;;;5051594;28;20204;-74
2022/09/28 01:01:04;;;;;;;3.97;2.93;;;10.00;99.90;;;;;;5048409;28;20713;-78
2022/09/28 01:03:32;;;;;;;6.60;4.90;;;10.10;99.90;;;;;;5051740;28;20208;-78
2022/09/28 01:06:01;;;;;;;3.33;2.90;;;10.10;99.90;;;;;;5033949;28;20265;-74
2022/09/28 01:08:28;;;;;;;3.53;3.03;;;10.10;99.90;;;;;;5051179;28;20225;-79
2022/09/28 01:10:53;;;;;;;3.43;2.97;;;10.10;99.90;;;;;;5030643;28;20216;-78
2022/09/28 01:13:20;;;;;;;3.10;2.80;;;10.20;99.90;;;;;;5039265;28;20653;-79
2022/09/28 01:16:02;;;;;;;4.53;3.63;;;10.20;99.90;;;;;;5034837;28;20793;-73
2022/09/28 01:18:30;;;;;;;4.03;2.63;;;10.20;99.90;;;;;;5044219;28;20200;-73
2022/09/28 01:21:00;;;;;;;3.50;2.80;;;10.10;99.90;;;;;;5049281;28;20230;-70
2022/09/28 01:23:53;;;;;;;3.17;2.40;;;10.10;99.90;;;;;;5057000;28;20216;-70
2022/09/28 01:26:31;;;;;;;5.13;2.90;;;10.10;99.90;;;;;;5048327;28;20199;-68
2022/09/28 01:29:11;;;;;;;3.03;2.27;;;10.10;99.90;;;;;;5046207;28;20215;-69
2022/09/28 01:31:44;;;;;;;2.10;1.90;;;10.10;99.90;;;;;;5038950;28;20216;-71
2022/09/28 01:34:15;;;;;;;3.67;2.40;;;10.10;99.90;;;;;;5033899;28;20198;-69
2022/09/28 01:36:49;;;;;;;3.17;2.50;;;10.00;99.90;;;;;;5050553;28;20584;-71
2022/09/28 01:39:31;;;;;;;2.70;2.33;;;10.10;99.90;;;;;;5043117;28;20957;-70
2022/09/28 01:42:02;;;;;;;3.47;2.77;;;10.10;99.90;;;;;;5052467;28;20224;-68
2022/09/28 01:44:30;;;;;;;3.63;2.77;;;10.30;99.90;;;;;;5047015;28;20204;-70
2022/09/28 01:47:02;;;;;;;3.60;2.57;;;10.20;99.90;;;;;;5053965;28;20702;-70
2022/09/28 01:49:35;;;;;;;2.53;1.93;;;10.20;99.90;;;;;;5036246;28;20812;-70
2022/09/28 01:52:07;;;;;;;3.17;2.30;;;10.10;99.90;;;;;;5031752;28;20589;-70
2022/09/28 01:55:02;;;;;;;2.80;2.13;;;10.10;99.90;;;;;;5053383;28;20286;-70
2022/09/28 01:57:43;;;;;;;2.57;2.37;;;10.10;99.90;;;;;;5050930;28;20216;-70
2022/09/28 02:00:13;;;;;;;3.03;2.57;;;10.10;99.90;;;;;;5050436;28;20212;-70
2022/09/28 02:02:57;;;;;;;3.33;3.03;;;10.20;99.90;;;;;;5049907;28;20210;-70
2022/09/28 02:05:31;;;;;;;3.13;2.30;;;10.10;99.90;;;;;;5028597;28;20215;-71
2022/09/28 02:08:36;;;;;;;2.87;2.27;;;10.10;99.90;;;;;;5031575;28;20220;-69
2022/09/28 02:11:16;;;;;;;3.33;2.73;;;10.00;99.90;;;;;;5044928;28;20220;-70
2022/09/28 02:13:44;;;;;;;3.47;2.67;;;10.10;99.90;;;;;;5054586;28;20215;-70
2022/09/28 02:16:33;;;;;;;3.37;2.70;;;10.00;99.90;;;;;;5050643;28;20200;-70
2022/09/28 02:18:59;;;;;;;5.87;3.13;;;10.00;99.90;;;;;;5015665;28;20205;-69
2022/09/28 02:21:42;;;;;;;3.30;3.00;;;9.90;99.90;;;;;;5054539;28;20230;-70
2022/09/28 02:24:19;;;;;;;4.53;3.13;;;10.00;99.90;;;;;;5049349;28;20200;-70
2022/09/28 02:26:48;;;;;;;3.97;3.57;;;10.00;99.90;;;;;;5047858;28;20218;-70
2022/09/28 02:29:14;;;;;;;3.67;3.37;;;10.00;99.90;;;;;;5050064;28;20238;-72
2022/09/28 02:31:39;;;;;;;3.93;3.47;;;10.00;99.90;;;;;;5035334;28;20647;-70
2022/09/28 02:34:05;;;;;;;4.37;3.53;;;10.10;99.90;;;;;;5049094;28;20218;-70
2022/09/28 02:36:32;;;;;;;4.33;3.73;;;10.10;99.90;;;;;;5048267;28;20238;-70
2022/09/28 02:39:01;;;;;;;5.37;3.87;;;10.10;99.90;;;;;;5052753;28;20266;-69
2022/09/28 02:41:45;;;;;;;4.90;3.87;;;10.10;99.90;;;;;;5032808;28;20211;-70
2022/09/28 02:44:37;;;;;;;4.83;3.93;;;10.10;99.90;;;;;;5014957;28;20219;-69
2022/09/28 02:47:27;;;;;;;5.80;4.17;;;10.10;99.90;;;;;;5050182;28;20207;-70
2022/09/28 02:50:24;;;;;;;5.87;3.63;;;10.00;99.90;;;;;;5025759;28;21332;-71
2022/09/28 02:53:05;;;;;;;5.87;3.87;;;10.00;99.90;;;;;;5043876;28;20732;-70
2022/09/28 02:55:50;;;;;;;5.80;4.00;;;10.00;99.90;;;;;;5018760;28;20208;-70
2022/09/28 02:58:29;;;;;;;5.00;3.83;;;10.00;99.90;;;;;;5037161;28;20169;-70
2022/09/28 03:01:11;;;;;;;5.23;4.17;;;9.90;99.90;;;;;;5042070;28;20212;-70
2022/09/28 03:04:05;;;;;;;5.47;4.10;;;10.00;99.90;;;;;;5035274;28;20222;-70
2022/09/28 03:06:38;;;;;;;7.33;4.40;;;10.00;99.90;;;;;;5012427;28;20590;-71
2022/09/28 03:09:28;;;;;;;5.60;4.33;;;9.90;99.90;;;;;;5037623;28;20219;-69
2022/09/28 03:12:03;;;;;;;5.50;4.13;;;9.90;99.90;;;;;;5034864;28;20219;-70
2022/09/28 03:14:28;;;;;;;4.60;3.90;;;9.80;99.90;;;;;;5037597;28;20207;-70
2022/09/28 03:16:54;;;;;;;4.77;4.13;;;9.80;99.90;;;;;;5020546;28;20231;-70
2022/09/28 03:19:25;;;;;;;6.17;4.27;;;9.80;99.90;;;;;;5035777;28;20181;-70
2022/09/28 03:21:50;;;;;;;5.43;4.30;;;9.80;99.90;;;;;;5034281;28;20199;-70
2022/09/28 03:24:16;;;;;;;7.13;4.73;;;9.80;99.90;;;;;;5037203;28;20205;-70
2022/09/28 03:26:41;;;;;;;5.83;4.43;;;9.70;99.90;;;;;;5024509;28;20265;-70
2022/09/28 03:29:07;;;;;;;6.17;4.63;;;9.70;99.90;;;;;;5036043;28;20239;-70
2022/09/28 03:31:33;;;;;;;5.73;4.63;;;9.60;99.90;;;;;;5040461;28;20608;-71
2022/09/28 03:33:59;;;;;;;5.20;3.97;;;9.60;99.90;;;;;;5022025;28;20234;-69
2022/09/28 03:36:25;;;;;;;6.80;4.87;;;9.60;99.90;;;;;;5022175;28;20209;-70
2022/09/28 03:38:56;;;;;;;6.10;4.70;;;9.50;99.90;;;;;;5022475;28;20694;-70
2022/09/28 03:41:23;;;;;;;8.03;4.77;;;9.60;99.90;;;;;;5024516;28;20204;-70
2022/09/28 03:43:48;;;;;;;6.43;4.67;;;9.50;99.90;;;;;;5026059;28;20212;-69
2022/09/28 03:46:14;;;;;;;8.03;5.63;;;9.50;99.90;;;;;;5025181;28;20675;-70
2022/09/28 03:48:40;;;;;;;5.67;4.70;;;9.40;99.90;;;;;;5025036;28;20207;-69
2022/09/28 03:51:08;;;;;;;9.00;5.00;;;9.50;99.90;;;;;;5037383;28;20894;-72
2022/09/28 03:53:35;;;;;;;5.50;4.27;;;9.50;99.90;;;;;;5045921;28;20211;-70
2022/09/28 03:56:12;;;;;;;7.17;4.80;;;9.50;99.90;;;;;;5017722;28;20235;-71
2022/09/28 03:58:37;;;;;;;6.13;5.13;;;9.40;99.90;;;;;;5020940;28;20218;-70
2022/09/28 04:01:08;;;;;;;7.93;5.77;;;9.40;99.90;;;;;;5025518;28;20646;-70
2022/09/28 04:03:34;;;;;;;7.00;5.17;;;9.30;99.90;;;;;;5037045;28;20216;-70
2022/09/28 04:06:00;;;;;;;7.17;4.97;;;9.30;99.90;;;;;;5020252;28;20216;-70
2022/09/28 04:08:26;;;;;;;8.17;5.30;;;9.30;99.90;;;;;;5025863;28;20645;-69
2022/09/28 04:10:55;;;;;;;8.10;5.77;;;9.30;99.90;;;;;;5042572;28;20259;-70
2022/09/28 04:13:21;;;;;;;7.17;5.40;;;9.30;99.90;;;;;;5018051;28;20185;-70
2022/09/28 04:15:53;;;;;;;8.03;5.40;;;9.20;99.90;;;;;;5041826;28;20377;-71
2022/09/28 04:18:18;;;;;;;7.00;5.30;;;9.20;99.90;;;;;;5043765;28;20267;-70
2022/09/28 04:20:46;;;;;;;10.03;5.97;;;9.20;99.90;;;;;;5031969;28;20247;-70
2022/09/28 04:23:15;;;;;;;7.73;5.67;;;9.30;99.90;;;;;;5033390;28;20208;-70
2022/09/28 04:25:41;;;;;;;8.33;5.67;;;9.40;99.90;;;;;;5041774;28;20207;-70
2022/09/28 04:30:52;;;;;;;6.77;5.13;;;9.40;99.90;;;;;;5034085;28;20214;-73
2022/09/28 04:33:17;;;;;;;8.37;5.47;;;9.30;99.90;;;;;;5038004;28;20197;-70
2022/09/28 04:35:43;;;;;;;8.60;5.07;;;9.40;99.90;;;;;;5022889;28;20216;-70
2022/09/28 04:38:08;;;;;;;8.47;4.97;;;9.40;99.90;;;;;;5013629;28;20216;-71
2022/09/28 04:40:34;;;;;;;7.07;5.03;;;9.30;99.90;;;;;;5020540;28;20195;-70
2022/09/28 04:42:59;;;;;;;8.93;5.80;;;9.40;99.90;;;;;;5037856;28;20184;-70
2022/09/28 04:45:25;;;;;;;7.27;5.60;;;9.40;99.90;;;;;;5037715;28;20208;-71
2022/09/28 04:47:51;;;;;;;12.53;5.80;;;9.40;99.90;;;;;;5020164;28;20212;-70
2022/09/28 04:50:17;;;;;;;9.90;5.70;;;9.40;99.90;;;;;;5017803;28;20201;-70
2022/09/28 04:52:42;;;;;;;9.83;6.40;;;9.40;99.90;;;;;;5042139;22;20373;-68
2022/09/28 04:55:11;;;;;;;7.73;5.60;;;9.30;99.90;;;;;;5048222;28;20176;-69
2022/09/28 04:57:37;;;;;;;9.03;5.47;;;9.30;99.90;;;;;;5040957;28;20220;-69
2022/09/28 05:00:03;;;;;;;6.83;5.20;;;9.30;99.90;;;;;;5037018;28;20541;-69
2022/09/28 05:02:29;;;;;;;7.20;5.33;;;9.30;99.90;;;;;;5037266;28;20208;-69
2022/09/28 05:04:55;;;;;;;9.77;6.03;;;9.30;99.90;;;;;;5032375;28;20577;-68
2022/09/28 05:07:21;;;;;;;11.67;6.67;;;9.20;99.90;;;;;;5038035;28;20171;-69
2022/09/28 05:09:46;;;;;;;8.53;5.90;;;9.20;99.90;;;;;;5041381;28;20180;-68
2022/09/28 05:12:12;;;;;;;7.37;6.20;;;9.20;99.90;;;;;;5041513;28;20219;-68
2022/09/28 05:14:37;;;;;;;8.27;6.03;;;9.20;99.90;;;;;;5044547;28;20298;-68
2022/09/28 05:17:03;;;;;;;8.43;5.77;;;9.20;99.90;;;;;;5040929;28;20273;-67
2022/09/28 05:19:29;;;;;;;6.90;5.50;;;9.20;99.90;;;;;;5022678;28;20576;-68
2022/09/28 05:21:56;;;;;;;8.70;6.40;;;9.30;99.90;;;;;;5043355;28;20179;-67
2022/09/28 05:24:22;;;;;;;7.50;5.50;;;9.30;99.90;;;;;;5042866;28;20219;-69
2022/09/28 05:26:48;;;;;;;7.20;5.20;;;9.30;99.90;;;;;;5041574;28;20204;-69
2022/09/28 05:29:13;;;;;;;6.97;5.70;;;9.40;99.90;;;;;;5040840;28;20227;-67
2022/09/28 05:31:39;;;;;;;7.10;5.87;;;9.40;99.90;;;;;;5044156;28;20212;-67
2022/09/28 05:34:05;;;;;;;7.67;5.80;;;9.40;99.90;;;;;;5041504;28;20302;-68
2022/09/28 05:36:31;;;;;;;9.27;6.40;;;9.40;99.90;;;;;;5040282;28;20278;-68
2022/09/28 05:38:57;;;;;;;9.17;6.63;;;9.40;99.90;;;;;;5040602;28;20290;-68
2022/09/28 05:41:22;;;;;;;10.37;6.53;;;9.40;99.90;;;;;;5042151;28;20363;-67
2022/09/28 05:43:50;;;;;;;9.57;6.30;;;9.40;99.90;;;;;;5041330;28;20243;-68
2022/09/28 05:46:16;;;;;;;7.90;5.90;;;9.40;99.90;;;;;;5022021;28;20280;-68
2022/09/28 05:48:42;;;;;;;10.37;6.13;;;9.40;99.90;;;;;;5021452;28;20638;-67
2022/09/28 05:51:09;;;;;;;13.27;6.43;;;9.40;99.90;;;;;;5027005;28;20235;-67
2022/09/28 05:53:34;;;;;;;9.33;6.47;;;9.40;99.90;;;;;;5020817;28;20221;-68
2022/09/28 05:56:00;;;;;;;8.23;6.17;;;9.50;99.90;;;;;;5041390;28;20281;-67
2022/09/28 05:58:27;;;;;;;12.00;6.80;;;9.40;99.90;;;;;;5042810;28;20686;-67
2022/09/28 06:00:54;;;;;;;9.33;6.30;;;9.50;99.90;;;;;;5041119;28;20177;-66
2022/09/28 06:03:20;;;;;;;10.53;6.80;;;9.50;99.90;;;;;;5037994;28;20289;-67
2022/09/28 06:05:46;;;;;;;10.50;6.00;;;9.60;99.90;;;;;;5042369;28;20912;-66
2022/09/28 06:08:12;;;;;;;13.93;5.87;;;9.70;99.90;;;;;;5041004;28;20690;-69
2022/09/28 06:10:38;;;;;;;7.13;4.57;;;10.20;99.90;;;;;;5041026;28;20212;-68
2022/09/28 06:13:05;;;;;;;6.73;4.30;;;11.00;99.90;;;;;;5021924;28;20293;-67
2022/09/28 06:15:33;;;;;;;6.33;4.67;;;11.20;99.90;;;;;;5036055;28;20319;-68
2022/09/28 06:18:06;;;;;;;5.87;4.67;;;11.60;99.90;;;;;;5036265;28;20580;-68
2022/09/28 06:20:39;;;;;;;5.73;4.27;;;12.50;99.90;;;;;;5039934;28;20569;-68
2022/09/28 06:23:06;;;;;;;8.35;4.32;;;13.30;99.90;;;;;;5039291;28;20271;-68
2022/09/28 06:25:31;;;;;;;5.43;4.47;;;14.10;99.90;;;;;;5025200;28;20263;-68
2022/09/28 06:28:10;;;;;;;5.78;4.72;;;14.10;99.90;;;;;;5036289;28;20631;-67
2022/09/28 06:30:37;;;;;;;7.53;5.45;;;14.00;99.90;;;;;;5041824;28;20230;-69
2022/09/28 06:33:03;;;;;;;6.13;4.65;;;14.50;99.90;;;;;;5038147;28;20311;-68
2022/09/28 06:35:30;;;;;;;6.30;5.18;;;14.40;99.90;;;;;;5038567;28;20208;-69
2022/09/28 06:37:58;;;;;;;8.60;4.50;;;14.30;99.90;;;;;;5020593;28;20270;-69
2022/09/28 06:40:24;;;;;;;9.60;4.85;;;14.50;99.90;;;;;;5039563;28;20708;-68
2022/09/28 06:42:58;;;;;;;6.05;4.88;;;15.10;99.90;;;;;;5022584;28;20235;-69
2022/09/28 06:45:25;;;;;;;7.20;4.93;;;15.50;99.90;;;;;;5037724;28;20208;-70
2022/09/28 06:47:56;;;;;;;5.82;4.45;;;15.30;99.90;;;;;;5041002;28;20212;-68
2022/09/28 06:50:23;;;;;;;8.68;5.35;;;15.20;99.90;;;;;;5038445;28;20204;-68
2022/09/28 06:52:50;;;;;;;7.30;5.20;;;15.00;99.90;;;;;;5039309;28;20265;-69
2022/09/28 06:55:16;;;;;;;6.85;5.22;;;14.70;99.90;;;;;;5038066;28;20177;-68
2022/09/28 06:57:41;;;;;;;7.63;5.43;;;14.30;99.90;;;;;;5022118;28;20712;-69
2022/09/28 07:00:07;;;;;;;6.38;5.43;;;14.60;99.90;;;;;;5037953;28;20716;-68
2022/09/28 07:02:33;;;;;;;7.07;5.82;;;15.20;99.90;;;;;;5040140;28;20212;-69
2022/09/28 07:04:58;;;;;;;9.15;5.97;;;15.70;99.90;;;;;;5036781;28;20235;-68
2022/09/28 07:07:24;;;;;;;6.43;5.22;;;15.80;99.90;;;;;;5038069;28;20183;-69
2022/09/28 07:09:54;;;;;;;6.38;5.75;;;16.80;99.90;;;;;;5039477;28;20638;-68
2022/09/28 07:12:20;;;;;;;7.03;5.50;;;17.40;99.90;;;;;;5036769;28;20827;-69
2022/09/28 07:14:46;;;;;;;6.20;4.82;;;18.20;99.90;;;;;;5042202;28;20215;-69
2022/09/28 07:17:11;;;;;;;7.68;5.72;;;18.50;99.90;;;;;;5036656;28;20228;-69
2022/09/28 07:19:37;;;;;;;6.07;5.32;;;18.60;99.90;;;;;;5037636;28;20223;-68
2022/09/28 07:22:02;;;;;;;8.05;6.00;;;18.40;99.90;;;;;;5038840;28;20215;-69
2022/09/28 07:24:29;;;;;;;7.65;5.82;;;18.50;99.90;;;;;;5037844;28;20660;-68
2022/09/28 07:26:54;;;;;;;7.97;6.20;;;17.90;99.90;;;;;;5040172;28;20694;-68
2022/09/28 07:29:20;;;;;;;6.43;5.60;;;17.50;99.90;;;;;;5036444;28;20308;-68
2022/09/28 07:31:46;;;;;;;8.68;6.90;;;17.20;99.90;;;;;;5040388;28;20651;-69
2022/09/28 07:34:12;;;;;;;7.95;6.15;;;16.60;99.90;;;;;;5038382;28;21145;-69
2022/09/28 07:36:37;;;;;;;9.60;6.05;;;16.70;99.90;;;;;;5040001;28;20216;-69
2022/09/28 07:39:03;;;;;;;9.85;6.53;;;16.80;99.90;;;;;;5038758;28;20270;-69
2022/09/28 07:41:31;;;;;;;8.70;6.95;;;16.40;99.90;;;;;;5039595;28;20277;-68
2022/09/28 07:44:06;;;;;;;7.40;6.65;;;16.40;99.90;;;;;;5019258;28;20277;-69
2022/09/28 07:46:36;;;;;;;8.82;6.53;;;15.60;99.90;;;;;;5033114;28;20211;-69
2022/09/28 07:49:04;;;;;;;8.27;6.47;;;15.50;99.90;;;;;;5019756;28;20236;-69
2022/09/28 07:51:30;;;;;;;8.98;6.03;;;15.20;99.90;;;;;;5023021;28;20208;-68
2022/09/28 07:53:56;;;;;;;7.75;6.45;;;14.90;99.90;;;;;;5039519;28;20224;-69
2022/09/28 07:56:22;;;;;;;9.15;6.07;;;15.30;99.90;;;;;;5037215;28;20237;-68
2022/09/28 07:58:48;;;;;;;8.32;7.22;;;15.50;99.90;;;;;;5021644;28;20589;-67
2022/09/28 08:01:15;;;;;;;8.00;6.65;;;15.20;99.90;;;;;;5021613;28;20211;-67
2022/09/28 08:03:46;;;;;;;8.20;6.88;;;14.90;99.90;;;;;;5019446;28;20219;-67
2022/09/28 08:06:15;;;;;;;8.40;6.72;;;14.50;99.90;;;;;;5034501;28;20236;-68
2022/09/28 08:08:43;;;;;;;8.75;6.05;;;14.70;99.90;;;;;;5019044;28;20208;-68
2022/09/28 08:11:14;;;;;;;8.63;6.75;;;14.40;99.90;;;;;;5020718;28;20212;-69
2022/09/28 08:13:40;;;;;;;10.95;7.00;;;14.30;99.90;;;;;;5020109;28;20227;-68
2022/09/28 08:16:07;;;;;;;10.82;7.15;;;14.40;99.90;;;;;;5035708;28;20266;-68
2022/09/28 08:18:34;;;;;;;10.40;6.65;;;14.70;99.90;;;;;;5037045;28;20678;-67
2022/09/28 08:23:45;;;;;;;8.43;6.18;;;14.20;99.90;;;;;;5032980;28;20219;-70
2022/09/28 08:26:10;;;;;;;9.63;6.88;;;14.40;99.90;;;;;;5018918;28;20220;-70
2022/09/28 08:28:36;;;;;;;7.22;6.28;;;14.50;99.90;;;;;;5034795;28;20221;-69
2022/09/28 08:31:02;;;;;;;9.13;6.15;;;14.50;99.90;;;;;;5020392;28;20203;-68
2022/09/28 08:33:28;;;;;;;8.05;5.85;;;14.30;99.90;;;;;;5022074;28;20215;-69
2022/09/28 08:35:58;;;;;;;10.18;6.55;;;14.20;99.90;;;;;;5033768;28;20315;-69
2022/09/28 08:38:25;;;;;;;7.78;6.47;;;14.40;99.90;;;;;;5038965;28;20323;-68
2022/09/28 08:41:03;;;;;;;9.35;7.07;;;14.10;99.90;;;;;;5040690;28;20622;-67
2022/09/28 08:43:50;;;;;;;8.45;6.97;;;13.80;99.90;;;;;;5044806;28;20188;-70
2022/09/28 08:46:20;;;;;;;8.77;6.60;;;13.50;99.90;;;;;;5019290;28;20200;-76
2022/09/28 08:49:08;;;;;;;11.85;7.00;;;13.40;99.90;;;;;;5019421;28;20191;-70
2022/09/28 08:51:41;;;;;;;10.57;7.07;;;13.20;99.90;;;;;;5039402;28;20756;-69
2022/09/28 08:54:24;;;;;;;11.48;7.32;;;13.10;99.90;;;;;;5040350;28;20328;-69
2022/09/28 08:57:02;;;;;;;9.15;7.22;;;13.20;99.90;;;;;;5037385;28;20329;-69
2022/09/28 08:59:40;;;;;;;10.70;7.20;;;12.90;99.90;;;;;;5041657;28;20557;-68
2022/09/28 09:02:15;;;;;;;10.00;7.00;;;12.90;99.90;;;;;;5006046;28;20232;-68
2022/09/28 09:04:41;;;;;;;10.83;8.03;;;12.80;99.90;;;;;;5044453;28;20226;-68
2022/09/28 09:07:12;;;;;;;9.20;7.00;;;12.80;99.90;;;;;;5039616;28;20571;-69
2022/09/28 09:10:04;;;;;;;8.43;7.03;;;12.90;99.90;;;;;;5043952;28;20245;-68
2022/09/28 09:12:36;;;;;;;7.70;5.73;;;12.90;99.90;;;;;;4997186;28;20296;-71
2022/09/28 09:15:47;;;;;;;8.10;6.43;;;13.20;99.90;;;;;;5030188;28;20631;-71
2022/09/28 09:18:33;;;;;;;5.93;5.32;;;13.50;99.90;;;;;;5018783;28;20694;-71
2022/09/28 09:21:25;;;;;;;8.93;6.22;;;13.70;99.90;;;;;;5037301;28;20200;-70
2022/09/28 09:24:02;;;;;;;4.95;4.55;;;14.00;99.90;;;;;;5035564;28;20217;-69
2022/09/28 09:26:37;;;;;;;6.75;5.20;;;14.10;99.90;;;;;;5038988;28;20218;-68
2022/09/28 09:29:31;;;;;;;5.40;3.55;;;14.40;99.90;;;;;;5015185;28;20695;-70
2022/09/28 09:32:30;;;;;;;4.50;4.10;;;14.50;99.90;;;;;;5030242;28;20243;-69
2022/09/28 09:35:08;;;;;;;5.10;4.40;;;14.30;99.90;;;;;;5036755;28;20623;-69
2022/09/28 09:37:51;;;;;;;4.93;3.88;;;14.80;99.90;;;;;;5039535;28;20287;-70
2022/09/28 09:40:24;;;;;;;8.60;6.70;;;15.10;99.90;;;;;;5041700;28;20177;-69
2022/09/28 09:43:06;;;;;;;4.13;3.17;;;15.40;99.90;;;;;;5041787;28;20223;-69
2022/09/28 09:46:05;;;;;;;5.05;3.40;;;15.40;99.90;;;;;;5037989;28;20196;-70
2022/09/28 09:49:09;;;;;;;3.28;2.92;;;15.50;99.90;;;;;;5021559;28;20226;-69
2022/09/28 09:51:43;;;;;;;8.93;4.72;;;14.80;99.90;;;;;;5038247;28;20250;-70
2022/09/28 09:54:38;;;;;;;5.80;3.72;;;14.90;99.90;;;;;;5038496;28;20242;-70
2022/09/28 09:57:06;;;;;;;4.90;3.13;;;15.10;99.90;;;;;;5022237;28;20214;-69
2022/09/28 09:59:36;;;;;;;6.53;2.95;;;14.70;99.90;;;;;;5043288;28;20238;-70
2022/09/28 10:02:17;;;;;;;3.08;2.20;;;14.40;99.90;;;;;;5039880;28;20216;-69
2022/09/28 10:04:45;;;;;;;2.53;1.90;;;14.30;99.90;;;;;;5043620;28;20639;-70
2022/09/28 10:07:20;;;;;;;4.85;2.10;;;14.40;99.90;;;;;;5040114;28;20179;-69
2022/09/28 10:09:49;;;;;;;5.68;2.58;;;14.30;99.90;;;;;;5041252;28;20307;-69
2022/09/28 10:12:19;;;;;;;5.65;2.50;;;14.10;99.90;;;;;;5021488;28;20212;-69
2022/09/28 10:14:45;;;;;;;3.35;2.15;;;14.30;99.90;;;;;;5036968;28;20212;-69
2022/09/28 10:17:15;;;;;;;2.20;1.80;;;14.40;99.90;;;;;;5040672;28;20223;-69
2022/09/28 10:19:42;;;;;;;5.78;2.30;;;14.20;99.90;;;;;;5022260;28;20350;-69
2022/09/28 10:22:20;;;;;;;3.83;2.10;;;14.20;99.90;;;;;;5039341;28;20578;-70
2022/09/28 10:24:50;;;;;;;7.15;2.45;;;14.10;99.90;;;;;;5038771;28;20575;-69
2022/09/28 10:27:37;;;;;;;2.92;1.75;;;14.10;99.90;;;;;;5023983;28;20214;-69
2022/09/28 10:30:09;;;;;;;3.38;1.85;;;13.90;99.90;;;;;;5036678;28;20529;-69
2022/09/28 10:32:45;;;;;;;5.38;1.73;;;13.70;99.90;;;;;;5042608;28;20208;-69
2022/09/28 10:35:25;;;;;;;5.50;2.80;;;13.60;99.90;;;;;;5022208;28;20215;-69
2022/09/28 10:37:54;;;;;;;6.50;3.63;;;13.70;99.90;;;;;;5006932;28;20220;-69
2022/09/28 10:40:29;;;;;;;3.47;1.50;;;13.60;99.90;;;;;;5008985;28;20184;-70
2022/09/28 10:43:29;;;;;;;4.68;1.98;;;13.60;99.90;;;;;;5022031;28;20208;-69
2022/09/28 10:46:13;;;;;;;4.30;1.50;;;13.40;99.90;;;;;;5003793;28;20223;-68
2022/09/28 10:48:51;;;;;;;3.17;1.53;;;13.50;99.90;;;;;;5042592;28;20246;-69
2022/09/28 10:51:17;;;;;;;2.97;1.30;;;13.60;99.90;;;;;;5040339;28;20204;-68
2022/09/28 10:53:59;;;;;;;3.58;1.80;;;13.70;99.90;;;;;;5022335;28;20226;-69
2022/09/28 10:56:28;;;;;;;3.00;1.37;;;13.70;99.90;;;;;;5063216;22;20268;-70
2022/09/28 10:58:54;;;;;;;5.00;2.17;;;13.60;99.90;;;;;;5044366;28;20228;-72
2022/09/28 11:01:24;;;;;;;2.60;2.10;;;13.60;99.90;;;;;;5048618;28;20183;-70
2022/09/28 11:03:55;;;;;;;3.00;2.10;;;13.30;99.90;;;;;;5046128;28;20180;-70
2022/09/28 11:06:40;;;;;;;3.00;1.83;;;13.30;99.90;;;;;;5035036;28;20681;-70
2022/09/28 11:09:28;;;;;;;4.03;1.97;;;13.20;99.90;;;;;;5033721;28;20302;-70
2022/09/28 11:11:54;;;;;;;4.50;2.00;;;13.10;99.90;;;;;;5026979;28;20224;-70
2022/09/28 11:14:26;;;;;;;2.20;2.00;;;13.10;99.90;;;;;;5017909;28;20720;-68
2022/09/28 11:17:16;;;;;;;3.43;1.90;;;13.20;99.90;;;;;;5026341;28;20663;-70
2022/09/28 11:19:42;;;;;;;2.90;2.13;;;13.00;99.90;;;;;;5023276;28;20273;-70
2022/09/28 11:22:37;;;;;;;2.80;2.00;;;13.20;99.90;;;;;;5036225;28;20189;-69
2022/09/28 11:25:17;;;;;;;2.50;1.83;;;13.20;99.90;;;;;;5030839;28;20667;-70
2022/09/28 11:27:52;;;;;;;2.50;1.80;;;13.40;99.90;;;;;;5011136;28;20572;-70
2022/09/28 11:30:48;;;;;;;4.97;2.40;;;13.40;99.90;;;;;;5027850;28;20233;-70
2022/09/28 11:33:18;;;;;;;3.33;2.23;;;13.50;99.90;;;;;;5031803;28;20884;-70
2022/09/28 11:35:45;;;;;;;6.00;4.20;;;13.60;99.90;;;;;;5024853;28;20216;-70
2022/09/28 11:38:24;;;;;;;3.10;1.90;;;14.00;99.90;;;;;;5033457;28;20741;-71
2022/09/28 11:41:09;;;;;;;7.53;2.63;;;14.00;99.90;;;;;;5028245;28;20231;-70
2022/09/28 11:44:13;;;;;;;3.92;2.95;;;13.80;99.90;;;;;;5025241;28;20254;-69
2022/09/28 11:47:01;;;;;;;3.58;2.15;;;13.90;99.90;;;;;;5028032;28;20278;-69
2022/09/28 11:49:34;;;;;;;2.57;2.30;;;13.60;99.90;;;;;;5032119;28;20294;-74
2022/09/28 11:52:07;;;;;;;4.85;2.60;;;13.60;99.90;;;;;;5030242;28;20195;-74
2022/09/28 11:54:53;;;;;;;2.30;1.97;;;13.20;99.90;;;;;;5022878;28;20212;-72
2022/09/28 11:57:26;;;;;;;4.17;2.67;;;13.00;99.90;;;;;;5029389;28;20229;-72
2022/09/28 12:00:05;;;;;;;5.70;2.33;;;13.00;99.90;;;;;;5027147;28;20223;-72
2022/09/28 12:02:47;;;;;;;2.27;1.70;;;13.00;99.90;;;;;;5021344;28;20215;-72
2022/09/28 12:05:39;;;;;;;2.90;2.13;;;12.90;99.90;;;;;;5033275;28;20215;-73
2022/09/28 12:08:26;;;;;;;4.37;2.37;;;13.00;99.90;;;;;;5028297;28;20221;-70
2022/09/28 12:11:00;;;;;;;3.07;1.40;;;13.10;99.90;;;;;;5002338;28;20228;-69
2022/09/28 12:13:31;;;;;;;2.60;1.40;;;12.90;99.90;;;;;;5027511;28;20613;-70
2022/09/28 12:16:06;;;;;;;2.43;1.20;;;13.00;99.90;;;;;;5027847;28;20208;-70
2022/09/28 12:18:39;;;;;;;1.83;1.57;;;12.90;99.90;;;;;;5023475;28;20629;-70
2022/09/28 12:21:23;;;;;;;3.03;1.30;;;12.90;99.90;;;;;;5015853;28;20643;-70
2022/09/28 12:23:57;;;;;;;2.43;1.40;;;13.00;99.90;;;;;;5028588;28;20239;-69
2022/09/28 12:26:37;;;;;;;2.53;1.50;;;13.00;99.90;;;;;;5027167;28;20263;-70
2022/09/28 12:29:11;;;;;;;3.00;1.27;;;13.00;99.90;;;;;;5028575;28;20656;-69
2022/09/28 12:31:56;;;;;;;3.67;1.83;;;13.10;99.90;;;;;;5033307;28;20599;-69
2022/09/28 12:34:21;;;;;;;1.77;1.10;;;13.30;99.90;;;;;;5025686;28;20187;-69
2022/09/28 12:37:07;;;;;;;3.10;1.90;;;13.20;99.90;;;;;;5021392;28;20231;-69
2022/09/28 12:39:50;;;;;;;3.17;1.10;;;13.10;99.90;;;;;;5028387;28;20212;-69
2022/09/28 12:42:30;;;;;;;0.60;0.60;;;13.00;99.90;;;;;;5029586;28;20210;-69
2022/09/28 12:45:16;;;;;;;3.57;2.50;;;13.10;99.90;;;;;;5020706;28;20213;-70
2022/09/28 12:48:07;;;;;;;1.40;0.80;;;13.40;99.90;;;;;;5034576;28;20330;-69
2022/09/28 12:50:48;;;;;;;0.90;0.47;;;13.50;99.90;;;;;;5021028;28;20234;-70
2022/09/28 12:53:51;;;;;;;0.60;0.50;;;13.60;99.90;;;;;;5024063;28;20220;-69
2022/09/28 12:56:23;;;;;;;2.33;0.70;;;13.60;99.90;;;;;;5013747;28;20219;-69
2022/09/28 12:59:03;;;;;;;1.43;0.80;;;13.50;99.90;;;;;;5027973;28;20232;-70
2022/09/28 13:02:08;;;;;;;0.70;0.70;;;13.50;99.90;;;;;;5002549;28;20330;-69
2022/09/28 13:05:01;;;;;;;1.10;1.00;;;13.30;99.90;;;;;;5032725;28;20187;-69
2022/09/28 13:07:52;;;;;;;3.40;1.80;;;13.20;99.90;;;;;;5009945;28;20188;-70
2022/09/28 13:10:31;;;;;;;1.53;1.10;;;13.50;99.90;;;;;;5022190;28;20264;-69
2022/09/28 13:13:03;;;;;;;1.65;0.70;;;13.40;99.90;;;;;;5032771;28;20176;-69
2022/09/28 13:15:37;;;;;;;1.10;0.80;;;13.60;99.90;;;;;;5031367;28;20247;-69
2022/09/28 13:18:12;;;;;;;1.02;0.80;;;13.70;99.90;;;;;;5024240;28;20219;-70
2022/09/28 13:21:02;;;;;;;2.58;0.77;;;13.50;99.90;;;;;;5014819;28;20200;-69
2022/09/28 13:23:43;;;;;;;1.92;0.90;;;13.50;99.90;;;;;;5029177;28;20212;-69